SWA6299 KFLL-MKJP
Flight info
| Callsign | SWA6299 |
|---|---|
| Flight time | 1h 21m |
| Altitude | 37000 |
| Route | REGAE2 URSUS UP406 BILSI UL795 BOPOL UR625 NEFTU UP525 EMABU UA301 IMADI DCT SAVEM ELSER6 |
| Aircraft | B738/M-SDE2E3FGHIRWXY/LB1 |
Departure
| Time | 2026-05-07 10:02 |
|---|---|
| Airport | Fort Lauderdale Hollywood International Airport (KFLL) |
Arrival
| Time | 2026-05-07 11:23 |
|---|---|
| Airport | Norman Manley International Airport (MKJP) |
| Time | Latitude | Longitude | Altitude | Speed | Heading |
|---|---|---|---|---|---|
| 2026-05-07 09:37 | 26.07443 | -80.13604 | 13 ft | 0 kts | 146° |
| 2026-05-07 09:49 | 26.07450 | -80.13612 | 12 ft | 2 kts | 122° |
| 2026-05-07 09:49 | 26.07458 | -80.13625 | 13 ft | 2 kts | 131° |
| 2026-05-07 09:50 | 26.07467 | -80.13636 | 13 ft | 1 kts | 132° |
| 2026-05-07 09:50 | 26.07474 | -80.13640 | 12 ft | 1 kts | 194° |
| 2026-05-07 09:50 | 26.07483 | -80.13634 | 13 ft | 1 kts | 248° |
| 2026-05-07 09:50 | 26.07484 | -80.13627 | 12 ft | 1 kts | 277° |
| 2026-05-07 09:51 | 26.07483 | -80.13622 | 12 ft | 0 kts | 270° |
| 2026-05-07 09:52 | 26.07477 | -80.13646 | 12 ft | 5 kts | 255° |
| 2026-05-07 09:53 | 26.07470 | -80.13697 | 12 ft | 7 kts | 265° |
| 2026-05-07 09:53 | 26.07469 | -80.13765 | 12 ft | 9 kts | 270° |
| 2026-05-07 09:53 | 26.07470 | -80.13836 | 12 ft | 9 kts | 275° |
| 2026-05-07 09:53 | 26.07480 | -80.13913 | 12 ft | 10 kts | 278° |
| 2026-05-07 09:54 | 26.07485 | -80.13996 | 12 ft | 10 kts | 271° |
| 2026-05-07 09:54 | 26.07485 | -80.14082 | 13 ft | 11 kts | 270° |
| 2026-05-07 09:54 | 26.07485 | -80.14170 | 12 ft | 11 kts | 275° |
| 2026-05-07 09:54 | 26.07528 | -80.14239 | 12 ft | 11 kts | 319° |
| 2026-05-07 09:55 | 26.07556 | -80.14318 | 12 ft | 11 kts | 272° |
| 2026-05-07 09:55 | 26.07559 | -80.14417 | 12 ft | 13 kts | 271° |
| 2026-05-07 09:55 | 26.07559 | -80.14518 | 12 ft | 12 kts | 270° |
| 2026-05-07 09:55 | 26.07559 | -80.14616 | 12 ft | 12 kts | 270° |
| 2026-05-07 09:56 | 26.07559 | -80.14714 | 12 ft | 12 kts | 270° |
| 2026-05-07 09:56 | 26.07560 | -80.14811 | 12 ft | 12 kts | 270° |
| 2026-05-07 09:56 | 26.07560 | -80.14908 | 12 ft | 12 kts | 270° |
| 2026-05-07 09:56 | 26.07561 | -80.15003 | 12 ft | 12 kts | 270° |
| 2026-05-07 09:57 | 26.07562 | -80.15098 | 13 ft | 12 kts | 271° |
| 2026-05-07 09:57 | 26.07563 | -80.15192 | 12 ft | 12 kts | 271° |
| 2026-05-07 09:57 | 26.07564 | -80.15284 | 12 ft | 11 kts | 270° |
| 2026-05-07 09:57 | 26.07563 | -80.15378 | 12 ft | 12 kts | 270° |
| 2026-05-07 09:58 | 26.07564 | -80.15479 | 12 ft | 13 kts | 271° |
| 2026-05-07 09:58 | 26.07565 | -80.15588 | 12 ft | 14 kts | 270° |
| 2026-05-07 09:58 | 26.07566 | -80.15695 | 13 ft | 13 kts | 270° |
| 2026-05-07 09:58 | 26.07566 | -80.15801 | 13 ft | 13 kts | 270° |
| 2026-05-07 09:59 | 26.07567 | -80.15906 | 12 ft | 13 kts | 271° |
| 2026-05-07 09:59 | 26.07568 | -80.15999 | 12 ft | 11 kts | 270° |
| 2026-05-07 09:59 | 26.07569 | -80.16082 | 13 ft | 10 kts | 270° |
| 2026-05-07 09:59 | 26.07568 | -80.16174 | 12 ft | 13 kts | 270° |
| 2026-05-07 10:00 | 26.07569 | -80.16277 | 12 ft | 13 kts | 270° |
| 2026-05-07 10:00 | 26.07570 | -80.16384 | 13 ft | 13 kts | 271° |
| 2026-05-07 10:00 | 26.07571 | -80.16486 | 12 ft | 12 kts | 270° |
| 2026-05-07 10:00 | 26.07604 | -80.16555 | 12 ft | 10 kts | 342° |
| 2026-05-07 10:01 | 26.07671 | -80.16548 | 12 ft | 9 kts | 33° |
| 2026-05-07 10:01 | 26.07693 | -80.16471 | 13 ft | 23 kts | 89° |
| 2026-05-07 10:01 | 26.07691 | -80.15946 | 13 ft | 110 kts | 90° |
| 2026-05-07 10:01 | 26.07683 | -80.14810 | 76 ft | 174 kts | 90° |
| 2026-05-07 10:02 | 26.07683 | -80.13477 | 843 ft | 178 kts | 89° |
| 2026-05-07 10:02 | 26.07707 | -80.12049 | 1462 ft | 196 kts | 89° |
| 2026-05-07 10:02 | 26.07723 | -80.10444 | 1911 ft | 220 kts | 89° |
| 2026-05-07 10:02 | 26.07717 | -80.08650 | 2569 ft | 239 kts | 89° |
| 2026-05-07 10:03 | 26.07728 | -80.06752 | 3337 ft | 255 kts | 89° |
| 2026-05-07 10:03 | 26.07765 | -80.04773 | 4260 ft | 264 kts | 89° |
| 2026-05-07 10:03 | 26.07818 | -80.02737 | 5218 ft | 271 kts | 89° |
| 2026-05-07 10:03 | 26.07864 | -80.00621 | 6167 ft | 277 kts | 90° |
| 2026-05-07 10:04 | 26.07864 | -79.98467 | 7132 ft | 281 kts | 91° |
| 2026-05-07 10:04 | 26.07844 | -79.96300 | 8091 ft | 285 kts | 91° |
| 2026-05-07 10:04 | 26.07818 | -79.94113 | 9008 ft | 289 kts | 91° |
| 2026-05-07 10:04 | 26.07792 | -79.91891 | 9960 ft | 291 kts | 90° |
| 2026-05-07 10:05 | 26.07774 | -79.89615 | 10646 ft | 304 kts | 90° |
| 2026-05-07 10:05 | 26.07757 | -79.87148 | 10919 ft | 330 kts | 90° |
| 2026-05-07 10:05 | 26.07721 | -79.84543 | 11425 ft | 347 kts | 93° |
| 2026-05-07 10:05 | 26.07377 | -79.81870 | 12346 ft | 351 kts | 101° |
| 2026-05-07 10:06 | 26.06832 | -79.79179 | 13072 ft | 361 kts | 102° |
| 2026-05-07 10:06 | 26.06245 | -79.76485 | 13872 ft | 367 kts | 102° |
| 2026-05-07 10:06 | 26.05636 | -79.73704 | 14625 ft | 374 kts | 102° |
| 2026-05-07 10:06 | 26.05020 | -79.70872 | 15355 ft | 381 kts | 102° |
| 2026-05-07 10:07 | 26.04401 | -79.68002 | 16078 ft | 388 kts | 101° |
| 2026-05-07 10:07 | 26.03768 | -79.65059 | 16786 ft | 394 kts | 101° |
| 2026-05-07 10:07 | 26.03090 | -79.62125 | 17468 ft | 401 kts | 102° |
| 2026-05-07 10:07 | 26.02364 | -79.59119 | 18126 ft | 408 kts | 102° |
| 2026-05-07 10:08 | 26.01605 | -79.56024 | 18804 ft | 414 kts | 104° |
| 2026-05-07 10:08 | 26.00514 | -79.53059 | 19433 ft | 423 kts | 117° |
| 2026-05-07 10:08 | 25.98830 | -79.50401 | 20118 ft | 429 kts | 132° |
| 2026-05-07 10:08 | 25.96471 | -79.48316 | 20750 ft | 435 kts | 151° |
| 2026-05-07 10:09 | 25.93697 | -79.47093 | 21390 ft | 437 kts | 166° |
| 2026-05-07 10:09 | 25.90725 | -79.46384 | 22043 ft | 440 kts | 173° |
| 2026-05-07 10:09 | 25.87639 | -79.46170 | 22553 ft | 444 kts | 184° |
| 2026-05-07 10:09 | 25.84617 | -79.46466 | 23274 ft | 442 kts | 192° |
| 2026-05-07 10:10 | 25.81656 | -79.47310 | 23691 ft | 444 kts | 206° |
| 2026-05-07 10:10 | 25.78917 | -79.48856 | 24458 ft | 438 kts | 214° |
| 2026-05-07 10:10 | 25.76298 | -79.50610 | 24810 ft | 446 kts | 216° |
| 2026-05-07 10:10 | 25.73702 | -79.52428 | 25421 ft | 448 kts | 216° |
| 2026-05-07 10:11 | 25.71089 | -79.54281 | 26001 ft | 450 kts | 217° |
| 2026-05-07 10:11 | 25.68444 | -79.56177 | 26481 ft | 454 kts | 218° |
| 2026-05-07 10:11 | 25.65909 | -79.58236 | 27026 ft | 455 kts | 222° |
| 2026-05-07 10:11 | 25.63407 | -79.60410 | 27515 ft | 458 kts | 223° |
| 2026-05-07 10:12 | 25.60908 | -79.62603 | 27998 ft | 461 kts | 223° |
| 2026-05-07 10:12 | 25.58404 | -79.64799 | 28451 ft | 464 kts | 223° |
| 2026-05-07 10:12 | 25.55867 | -79.67024 | 28908 ft | 467 kts | 223° |
| 2026-05-07 10:12 | 25.53333 | -79.69244 | 29373 ft | 469 kts | 223° |
| 2026-05-07 10:13 | 25.50790 | -79.71469 | 29887 ft | 469 kts | 223° |
| 2026-05-07 10:13 | 25.48241 | -79.73696 | 30454 ft | 468 kts | 223° |
| 2026-05-07 10:13 | 25.45684 | -79.75930 | 30981 ft | 468 kts | 223° |
| 2026-05-07 10:13 | 25.43055 | -79.78048 | 31484 ft | 471 kts | 217° |
| 2026-05-07 10:14 | 25.40225 | -79.79868 | 31992 ft | 474 kts | 211° |
| 2026-05-07 10:14 | 25.37185 | -79.81242 | 32444 ft | 479 kts | 201° |
| 2026-05-07 10:14 | 25.33956 | -79.82026 | 32898 ft | 484 kts | 189° |
| 2026-05-07 10:14 | 25.30584 | -79.82004 | 33286 ft | 490 kts | 175° |
| 2026-05-07 10:15 | 25.27241 | -79.81347 | 33830 ft | 488 kts | 170° |
| 2026-05-07 10:15 | 25.23931 | -79.80514 | 34182 ft | 490 kts | 168° |
| 2026-05-07 10:15 | 25.20639 | -79.79618 | 34573 ft | 489 kts | 168° |
| 2026-05-07 10:15 | 25.17388 | -79.78687 | 35002 ft | 488 kts | 167° |
| 2026-05-07 10:16 | 25.14092 | -79.77710 | 35382 ft | 488 kts | 167° |
| 2026-05-07 10:16 | 25.10841 | -79.76725 | 35766 ft | 487 kts | 166° |
| 2026-05-07 10:16 | 25.07626 | -79.75736 | 36122 ft | 486 kts | 166° |
| 2026-05-07 10:16 | 25.04388 | -79.74731 | 36452 ft | 486 kts | 166° |
| 2026-05-07 10:17 | 25.01150 | -79.73717 | 36762 ft | 485 kts | 166° |
| 2026-05-07 10:17 | 24.97912 | -79.72700 | 37027 ft | 485 kts | 166° |
| 2026-05-07 10:17 | 24.94665 | -79.71666 | 37037 ft | 490 kts | 165° |
| 2026-05-07 10:18 | 24.88264 | -79.68964 | 37034 ft | 496 kts | 154° |
| 2026-05-07 10:18 | 24.82346 | -79.65100 | 37038 ft | 496 kts | 149° |
| 2026-05-07 10:19 | 24.76568 | -79.61084 | 37038 ft | 495 kts | 148° |
| 2026-05-07 10:19 | 24.70780 | -79.57036 | 37040 ft | 494 kts | 148° |
| 2026-05-07 10:20 | 24.65014 | -79.52997 | 37040 ft | 495 kts | 148° |
| 2026-05-07 10:20 | 24.59196 | -79.48920 | 37045 ft | 495 kts | 148° |
| 2026-05-07 10:21 | 24.53428 | -79.44879 | 37045 ft | 495 kts | 148° |
| 2026-05-07 10:21 | 24.47628 | -79.40819 | 37046 ft | 495 kts | 148° |
| 2026-05-07 10:22 | 24.41890 | -79.36805 | 37046 ft | 494 kts | 148° |
| 2026-05-07 10:22 | 24.36110 | -79.32767 | 37047 ft | 494 kts | 148° |
| 2026-05-07 10:23 | 24.30344 | -79.28737 | 37048 ft | 494 kts | 148° |
| 2026-05-07 10:23 | 24.24597 | -79.24620 | 37048 ft | 494 kts | 147° |
| 2026-05-07 10:24 | 24.18861 | -79.20493 | 37048 ft | 494 kts | 147° |
| 2026-05-07 10:24 | 24.13135 | -79.16383 | 37049 ft | 495 kts | 147° |
| 2026-05-07 10:25 | 24.07397 | -79.12270 | 37049 ft | 496 kts | 147° |
| 2026-05-07 10:25 | 24.01485 | -79.08437 | 37049 ft | 494 kts | 155° |
| 2026-05-07 10:26 | 23.95034 | -79.06061 | 37055 ft | 489 kts | 169° |
| 2026-05-07 10:26 | 23.88389 | -79.04678 | 37049 ft | 489 kts | 171° |
| 2026-05-07 10:27 | 23.81723 | -79.03355 | 37049 ft | 490 kts | 171° |
| 2026-05-07 10:27 | 23.75038 | -79.02032 | 37049 ft | 490 kts | 171° |
| 2026-05-07 10:28 | 23.68370 | -79.00714 | 37049 ft | 490 kts | 171° |
| 2026-05-07 10:28 | 23.61694 | -78.99395 | 37049 ft | 490 kts | 171° |
| 2026-05-07 10:29 | 23.55000 | -78.98075 | 37049 ft | 490 kts | 171° |
| 2026-05-07 10:29 | 23.48297 | -78.96754 | 37049 ft | 490 kts | 171° |
| 2026-05-07 10:30 | 23.38298 | -78.94786 | 37049 ft | 490 kts | 171° |
| 2026-05-07 10:30 | 23.31589 | -78.93468 | 37049 ft | 490 kts | 171° |
| 2026-05-07 10:31 | 23.24922 | -78.92133 | 37047 ft | 490 kts | 168° |
| 2026-05-07 10:31 | 23.18491 | -78.89761 | 37043 ft | 492 kts | 152° |
| 2026-05-07 10:32 | 23.12878 | -78.85599 | 37049 ft | 492 kts | 142° |
| 2026-05-07 10:32 | 23.07450 | -78.81115 | 37049 ft | 493 kts | 142° |
| 2026-05-07 10:33 | 23.02015 | -78.76611 | 37050 ft | 492 kts | 142° |
| 2026-05-07 10:33 | 22.96592 | -78.72121 | 37050 ft | 492 kts | 142° |
| 2026-05-07 10:34 | 22.91184 | -78.67647 | 37049 ft | 491 kts | 142° |
| 2026-05-07 10:34 | 22.85763 | -78.63167 | 37049 ft | 491 kts | 142° |
| 2026-05-07 10:35 | 22.80362 | -78.58707 | 37050 ft | 491 kts | 142° |
| 2026-05-07 10:35 | 22.74954 | -78.54230 | 37050 ft | 491 kts | 141° |
| 2026-05-07 10:36 | 22.69553 | -78.49731 | 37050 ft | 491 kts | 141° |
| 2026-05-07 10:36 | 22.64173 | -78.45254 | 37049 ft | 491 kts | 141° |
| 2026-05-07 10:37 | 22.58762 | -78.40756 | 37050 ft | 491 kts | 141° |
| 2026-05-07 10:37 | 22.53370 | -78.36279 | 37050 ft | 491 kts | 141° |
| 2026-05-07 10:38 | 22.47989 | -78.31800 | 37045 ft | 490 kts | 141° |
| 2026-05-07 10:38 | 22.42626 | -78.27325 | 37045 ft | 489 kts | 142° |
| 2026-05-07 10:39 | 22.37258 | -78.22852 | 37045 ft | 489 kts | 141° |
| 2026-05-07 10:39 | 22.31867 | -78.18366 | 37045 ft | 489 kts | 141° |
| 2026-05-07 10:40 | 22.26504 | -78.13907 | 37046 ft | 489 kts | 141° |
| 2026-05-07 10:40 | 22.21123 | -78.09439 | 37046 ft | 489 kts | 141° |
| 2026-05-07 10:41 | 22.15771 | -78.04999 | 37046 ft | 489 kts | 141° |
| 2026-05-07 10:41 | 22.10392 | -78.00542 | 37049 ft | 489 kts | 141° |
| 2026-05-07 10:42 | 22.05008 | -77.96085 | 37049 ft | 490 kts | 141° |
| 2026-05-07 10:42 | 21.99606 | -77.91618 | 37048 ft | 490 kts | 141° |
| 2026-05-07 10:43 | 21.94255 | -77.87197 | 37048 ft | 489 kts | 141° |
| 2026-05-07 10:43 | 21.88845 | -77.82735 | 37047 ft | 489 kts | 141° |
| 2026-05-07 10:44 | 21.83471 | -77.78335 | 37048 ft | 489 kts | 141° |
| 2026-05-07 10:44 | 21.78091 | -77.73937 | 37048 ft | 489 kts | 141° |
| 2026-05-07 10:45 | 21.72689 | -77.69524 | 37048 ft | 489 kts | 141° |
| 2026-05-07 10:45 | 21.67269 | -77.65101 | 37048 ft | 489 kts | 141° |
| 2026-05-07 10:46 | 21.61882 | -77.60709 | 37047 ft | 489 kts | 141° |
| 2026-05-07 10:46 | 21.56478 | -77.56306 | 37048 ft | 490 kts | 141° |
| 2026-05-07 10:47 | 21.51066 | -77.51902 | 37047 ft | 490 kts | 141° |
| 2026-05-07 10:47 | 21.45658 | -77.47505 | 37047 ft | 489 kts | 141° |
| 2026-05-07 10:48 | 21.39824 | -77.43800 | 37045 ft | 491 kts | 157° |
| 2026-05-07 10:48 | 21.36616 | -77.42764 | 37043 ft | 490 kts | 172° |
| 2026-05-07 10:48 | 21.33229 | -77.42467 | 37062 ft | 490 kts | 180° |
| 2026-05-07 10:49 | 21.26401 | -77.42557 | 37045 ft | 491 kts | 182° |
| 2026-05-07 10:49 | 21.19610 | -77.42750 | 37046 ft | 490 kts | 182° |
| 2026-05-07 10:50 | 21.12833 | -77.42950 | 37046 ft | 490 kts | 182° |
| 2026-05-07 10:50 | 21.06058 | -77.43153 | 37046 ft | 491 kts | 182° |
| 2026-05-07 10:51 | 20.99234 | -77.43359 | 37045 ft | 491 kts | 182° |
| 2026-05-07 10:51 | 20.92441 | -77.43564 | 37044 ft | 490 kts | 182° |
| 2026-05-07 10:52 | 20.85669 | -77.43769 | 37044 ft | 490 kts | 182° |
| 2026-05-07 10:52 | 20.78886 | -77.43975 | 37043 ft | 490 kts | 182° |
| 2026-05-07 10:53 | 20.72081 | -77.44181 | 37042 ft | 490 kts | 182° |
| 2026-05-07 10:53 | 20.65271 | -77.44387 | 37041 ft | 489 kts | 182° |
| 2026-05-07 10:54 | 20.58533 | -77.44591 | 37040 ft | 489 kts | 182° |
| 2026-05-07 10:54 | 20.51732 | -77.44786 | 37039 ft | 490 kts | 182° |
| 2026-05-07 10:55 | 20.44946 | -77.44958 | 37038 ft | 490 kts | 182° |
| 2026-05-07 10:55 | 20.38157 | -77.45130 | 37037 ft | 490 kts | 182° |
| 2026-05-07 10:56 | 20.31395 | -77.45302 | 37036 ft | 490 kts | 182° |
| 2026-05-07 10:56 | 20.24598 | -77.45474 | 37035 ft | 490 kts | 182° |
| 2026-05-07 10:57 | 20.17819 | -77.45647 | 37034 ft | 489 kts | 182° |
| 2026-05-07 10:57 | 20.11047 | -77.45819 | 37034 ft | 489 kts | 182° |
| 2026-05-07 10:58 | 20.04253 | -77.45991 | 37033 ft | 490 kts | 182° |
| 2026-05-07 10:58 | 19.97499 | -77.46163 | 37031 ft | 489 kts | 182° |
| 2026-05-07 10:59 | 19.90714 | -77.46336 | 37029 ft | 490 kts | 182° |
| 2026-05-07 10:59 | 19.83909 | -77.46508 | 37028 ft | 490 kts | 182° |
| 2026-05-07 11:00 | 19.77120 | -77.46680 | 37027 ft | 489 kts | 182° |
| 2026-05-07 11:00 | 19.70365 | -77.46851 | 37027 ft | 489 kts | 182° |
| 2026-05-07 11:01 | 19.63613 | -77.47021 | 37026 ft | 489 kts | 182° |
| 2026-05-07 11:01 | 19.56829 | -77.47191 | 36837 ft | 484 kts | 181° |
| 2026-05-07 11:02 | 19.53484 | -77.47146 | 36110 ft | 479 kts | 177° |
| 2026-05-07 11:02 | 19.50184 | -77.46863 | 35307 ft | 476 kts | 172° |
| 2026-05-07 11:02 | 19.46937 | -77.46269 | 34579 ft | 483 kts | 165° |
| 2026-05-07 11:02 | 19.43721 | -77.45285 | 33827 ft | 487 kts | 161° |
| 2026-05-07 11:03 | 19.40514 | -77.44179 | 33040 ft | 482 kts | 160° |
| 2026-05-07 11:03 | 19.37375 | -77.43067 | 32272 ft | 485 kts | 160° |
| 2026-05-07 11:03 | 19.34159 | -77.41916 | 31459 ft | 489 kts | 159° |
| 2026-05-07 11:03 | 19.30967 | -77.40767 | 30631 ft | 485 kts | 159° |
| 2026-05-07 11:04 | 19.27814 | -77.39628 | 29854 ft | 486 kts | 159° |
| 2026-05-07 11:04 | 19.24594 | -77.38461 | 29259 ft | 487 kts | 159° |
| 2026-05-07 11:04 | 19.21470 | -77.37329 | 28591 ft | 477 kts | 159° |
| 2026-05-07 11:04 | 19.18338 | -77.36192 | 27951 ft | 480 kts | 159° |
| 2026-05-07 11:05 | 19.15131 | -77.35024 | 27272 ft | 493 kts | 159° |
| 2026-05-07 11:05 | 19.11938 | -77.33863 | 26579 ft | 491 kts | 159° |
| 2026-05-07 11:05 | 19.08709 | -77.32690 | 25878 ft | 482 kts | 159° |
| 2026-05-07 11:05 | 19.05583 | -77.31554 | 25204 ft | 474 kts | 158° |
| 2026-05-07 11:06 | 19.02529 | -77.30444 | 24548 ft | 475 kts | 158° |
| 2026-05-07 11:06 | 18.99369 | -77.29292 | 23851 ft | 485 kts | 158° |
| 2026-05-07 11:06 | 18.96218 | -77.28122 | 23147 ft | 480 kts | 156° |
| 2026-05-07 11:06 | 18.93172 | -77.26733 | 22479 ft | 470 kts | 152° |
| 2026-05-07 11:07 | 18.90277 | -77.25310 | 21802 ft | 464 kts | 152° |
| 2026-05-07 11:07 | 18.87362 | -77.23867 | 21122 ft | 458 kts | 152° |
| 2026-05-07 11:07 | 18.84506 | -77.22456 | 20454 ft | 452 kts | 152° |
| 2026-05-07 11:07 | 18.81698 | -77.21069 | 19790 ft | 448 kts | 152° |
| 2026-05-07 11:08 | 18.78894 | -77.19688 | 19123 ft | 442 kts | 153° |
| 2026-05-07 11:08 | 18.76152 | -77.18336 | 18473 ft | 436 kts | 153° |
| 2026-05-07 11:08 | 18.73438 | -77.17001 | 17827 ft | 431 kts | 153° |
| 2026-05-07 11:08 | 18.70742 | -77.15675 | 17147 ft | 426 kts | 153° |
| 2026-05-07 11:09 | 18.68066 | -77.14359 | 16529 ft | 420 kts | 153° |
| 2026-05-07 11:09 | 18.65467 | -77.13084 | 15918 ft | 412 kts | 153° |
| 2026-05-07 11:09 | 18.62912 | -77.11830 | 15287 ft | 398 kts | 154° |
| 2026-05-07 11:09 | 18.60439 | -77.10618 | 14685 ft | 385 kts | 154° |
| 2026-05-07 11:10 | 18.58070 | -77.09457 | 14100 ft | 373 kts | 154° |
| 2026-05-07 11:10 | 18.55755 | -77.08322 | 13527 ft | 362 kts | 154° |
| 2026-05-07 11:10 | 18.53511 | -77.07231 | 12957 ft | 352 kts | 157° |
| 2026-05-07 11:10 | 18.51179 | -77.06604 | 12056 ft | 347 kts | 173° |
| 2026-05-07 11:11 | 18.48836 | -77.06485 | 11162 ft | 339 kts | 179° |
| 2026-05-07 11:11 | 18.46534 | -77.06488 | 10483 ft | 325 kts | 179° |
| 2026-05-07 11:11 | 18.44339 | -77.06484 | 10126 ft | 303 kts | 178° |
| 2026-05-07 11:11 | 18.42319 | -77.06460 | 10056 ft | 287 kts | 177° |
| 2026-05-07 11:12 | 18.40323 | -77.06419 | 10048 ft | 285 kts | 177° |
| 2026-05-07 11:12 | 18.38353 | -77.06369 | 10043 ft | 285 kts | 176° |
| 2026-05-07 11:12 | 18.36364 | -77.06312 | 9997 ft | 286 kts | 176° |
| 2026-05-07 11:12 | 18.34375 | -77.06253 | 9605 ft | 288 kts | 176° |
| 2026-05-07 11:13 | 18.32406 | -77.06196 | 9213 ft | 279 kts | 176° |
| 2026-05-07 11:13 | 18.30502 | -77.06139 | 8887 ft | 272 kts | 176° |
| 2026-05-07 11:13 | 18.28627 | -77.06083 | 8563 ft | 271 kts | 176° |
| 2026-05-07 11:13 | 18.26735 | -77.06025 | 8229 ft | 271 kts | 176° |
| 2026-05-07 11:14 | 18.24882 | -77.05969 | 7900 ft | 269 kts | 176° |
| 2026-05-07 11:14 | 18.23011 | -77.05912 | 7565 ft | 268 kts | 175° |
| 2026-05-07 11:14 | 18.21151 | -77.05856 | 7234 ft | 267 kts | 175° |
| 2026-05-07 11:14 | 18.19299 | -77.05801 | 6905 ft | 265 kts | 175° |
| 2026-05-07 11:15 | 18.17478 | -77.05746 | 6583 ft | 263 kts | 175° |
| 2026-05-07 11:15 | 18.15659 | -77.05692 | 6259 ft | 262 kts | 175° |
| 2026-05-07 11:15 | 18.13856 | -77.05638 | 5930 ft | 254 kts | 175° |
| 2026-05-07 11:15 | 18.12118 | -77.05586 | 5629 ft | 248 kts | 175° |
| 2026-05-07 11:16 | 18.10413 | -77.05534 | 5336 ft | 247 kts | 175° |
| 2026-05-07 11:16 | 18.08717 | -77.05483 | 4988 ft | 238 kts | 175° |
| 2026-05-07 11:16 | 18.07121 | -77.05436 | 4734 ft | 227 kts | 175° |
| 2026-05-07 11:16 | 18.05557 | -77.05305 | 4421 ft | 222 kts | 162° |
| 2026-05-07 11:17 | 18.04366 | -77.04416 | 4166 ft | 215 kts | 122° |
| 2026-05-07 11:17 | 18.03740 | -77.02975 | 3899 ft | 213 kts | 109° |
| 2026-05-07 11:17 | 18.03272 | -77.01556 | 3556 ft | 203 kts | 110° |
| 2026-05-07 11:17 | 18.02779 | -77.00213 | 3311 ft | 192 kts | 112° |
| 2026-05-07 11:18 | 18.02258 | -76.98916 | 3173 ft | 192 kts | 113° |
| 2026-05-07 11:18 | 18.01720 | -76.97636 | 2994 ft | 192 kts | 114° |
| 2026-05-07 11:18 | 18.01172 | -76.96362 | 2865 ft | 185 kts | 114° |
| 2026-05-07 11:18 | 18.00647 | -76.95153 | 2788 ft | 180 kts | 114° |
| 2026-05-07 11:19 | 18.00127 | -76.93961 | 2795 ft | 180 kts | 114° |
| 2026-05-07 11:19 | 17.99605 | -76.92767 | 2682 ft | 180 kts | 114° |
| 2026-05-07 11:19 | 17.99092 | -76.91595 | 2419 ft | 171 kts | 114° |
| 2026-05-07 11:19 | 17.98625 | -76.90529 | 2208 ft | 152 kts | 114° |
| 2026-05-07 11:20 | 17.98194 | -76.89545 | 2029 ft | 145 kts | 114° |
| 2026-05-07 11:20 | 17.97771 | -76.88577 | 1821 ft | 147 kts | 114° |
| 2026-05-07 11:20 | 17.97348 | -76.87610 | 1622 ft | 144 kts | 114° |
| 2026-05-07 11:20 | 17.96929 | -76.86656 | 1423 ft | 146 kts | 114° |
| 2026-05-07 11:21 | 17.96506 | -76.85691 | 1224 ft | 145 kts | 114° |
| 2026-05-07 11:21 | 17.96084 | -76.84734 | 1029 ft | 145 kts | 115° |
| 2026-05-07 11:21 | 17.95583 | -76.83823 | 844 ft | 144 kts | 121° |
| 2026-05-07 11:21 | 17.95068 | -76.82912 | 653 ft | 146 kts | 117° |
| 2026-05-07 11:22 | 17.94660 | -76.81938 | 461 ft | 145 kts | 107° |
| 2026-05-07 11:22 | 17.94392 | -76.80913 | 264 ft | 145 kts | 106° |
| 2026-05-07 11:22 | 17.94027 | -76.79950 | 77 ft | 142 kts | 113° |
| 2026-05-07 11:22 | 17.93674 | -76.79015 | 20 ft | 115 kts | 112° |
| 2026-05-07 11:23 | 17.93472 | -76.78509 | 19 ft | 38 kts | 111° |
| 2026-05-07 11:23 | 17.93408 | -76.78341 | 19 ft | 18 kts | 107° |
| 2026-05-07 11:23 | 17.93397 | -76.78230 | 19 ft | 13 kts | 85° |
| 2026-05-07 11:23 | 17.93415 | -76.78148 | 19 ft | 9 kts | 50° |
| 2026-05-07 11:24 | 17.93466 | -76.78133 | 19 ft | 7 kts | 343° |
| 2026-05-07 11:24 | 17.93513 | -76.78149 | 19 ft | 7 kts | 354° |
| 2026-05-07 11:24 | 17.93566 | -76.78140 | 19 ft | 7 kts | 17° |
| 2026-05-07 11:24 | 17.93612 | -76.78123 | 19 ft | 5 kts | 21° |
| 2026-05-07 11:25 | 17.93636 | -76.78098 | 19 ft | 4 kts | 72° |
| 2026-05-07 11:25 | 17.93632 | -76.78072 | 19 ft | 2 kts | 107° |
| 2026-05-07 11:25 | 17.93625 | -76.78052 | 19 ft | 1 kts | 109° |